TW-0010 weather

Far Eastern Memorial Hospital Heliport
Taipei, Taipei (municipality), Taiwan

Public forecast

Using degrees Celsius for public forecast. Weather courtesy of forecast.io.

Closest aviation weather report (METAR) to Far Eastern Memorial Hospital Heliport

Closest report is Taipei Songshan Airport, 6.9 nm (12.8 km) NE. Retrieved 2020/01/17 18:00 UTC (14 minutes ago):

RCSS 171800Z 08006KT 010V120 9999 -DZ FEW012 BKN025 BKN040 14/10 Q1022 NOSIG RMK A3018

Closest aviation forecast (TAF) to Far Eastern Memorial Hospital Heliport

Closest forecast is Taipei Songshan Airport, 6.9 nm (12.8 km) NE. Retrieved 2020/01/17 18:00 UTC (14 minutes ago):

TAF RCSS 171700Z 1718/1818 09005KT 9999 FEW010 BKN022 BKN040 TEMPO 1803/1809 09010KT FEW012 SCT020 BKN032 BECMG 1809/1811 FEW015 BKN032